sensor_id;sensor_type;location;lat;lon;timestamp;pressure;altitude;pressure_sealevel;temperature;humidity
57048;BME280;42934;54.294;18.598;2022-11-06T00:22:42;101029.06;;;6.48;83.12
57048;BME280;42934;54.294;18.598;2022-11-06T00:25:11;101036.09;;;6.40;81.98
57048;BME280;42934;54.294;18.598;2022-11-06T00:27:40;101032.56;;;6.44;83.34
57048;BME280;42934;54.294;18.598;2022-11-06T00:30:10;101031.69;;;6.43;82.58
57048;BME280;42934;54.294;18.598;2022-11-06T00:32:40;101036.06;;;6.43;82.36
57048;BME280;42934;54.294;18.598;2022-11-06T00:35:09;101042.09;;;6.46;83.34
57048;BME280;42934;54.294;18.598;2022-11-06T00:37:38;101037.75;;;6.47;82.49
57048;BME280;42934;54.294;18.598;2022-11-06T00:40:10;101029.97;;;6.42;82.75
57048;BME280;42934;54.294;18.598;2022-11-06T00:42:40;101026.50;;;6.40;82.00
57048;BME280;42934;54.294;18.598;2022-11-06T00:45:09;101026.50;;;6.42;82.31
57048;BME280;42934;54.294;18.598;2022-11-06T00:47:39;101025.63;;;6.41;82.25
57048;BME280;42934;54.294;18.598;2022-11-06T00:50:09;101021.34;;;6.35;82.16
57048;BME280;42934;54.294;18.598;2022-11-06T00:52:38;101021.38;;;6.29;81.74
57048;BME280;42934;54.294;18.598;2022-11-06T00:55:09;101017.94;;;6.26;82.40
57048;BME280;42934;54.294;18.598;2022-11-06T00:57:38;101016.31;;;6.16;81.79
57048;BME280;42934;54.294;18.598;2022-11-06T01:00:08;101019.75;;;6.18;82.02
57048;BME280;42934;54.294;18.598;2022-11-06T01:02:38;101014.53;;;6.18;82.63
57048;BME280;42934;54.294;18.598;2022-11-06T01:05:07;101020.63;;;6.17;81.96
57048;BME280;42934;54.294;18.598;2022-11-06T01:07:36;101015.50;;;6.07;82.31
57048;BME280;42934;54.294;18.598;2022-11-06T01:10:08;101010.28;;;6.07;82.20
57048;BME280;42934;54.294;18.598;2022-11-06T01:12:37;101010.28;;;6.07;82.34
57048;BME280;42934;54.294;18.598;2022-11-06T01:15:07;101012.94;;;6.01;82.71
57048;BME280;42934;54.294;18.598;2022-11-06T01:17:36;101008.63;;;5.92;82.92
57048;BME280;42934;54.294;18.598;2022-11-06T01:20:06;101013.88;;;5.88;83.41
57048;BME280;42934;54.294;18.598;2022-11-06T01:22:35;101015.78;;;5.66;84.23
57048;BME280;42934;54.294;18.598;2022-11-06T01:25:05;101020.97;;;5.69;84.60
57048;BME280;42934;54.294;18.598;2022-11-06T01:27:36;101009.56;;;5.82;84.33
57048;BME280;42934;54.294;18.598;2022-11-06T01:30:06;101010.41;;;5.87;84.24
57048;BME280;42934;54.294;18.598;2022-11-06T01:32:36;101006.91;;;5.91;84.02
57048;BME280;42934;54.294;18.598;2022-11-06T01:35:05;101004.38;;;5.85;84.51
57048;BME280;42934;54.294;18.598;2022-11-06T01:37:35;101017.38;;;5.82;84.33
57048;BME280;42934;54.294;18.598;2022-11-06T01:40:04;101013.97;;;5.76;84.78
57048;BME280;42934;54.294;18.598;2022-11-06T01:42:35;101013.91;;;5.86;84.50
57048;BME280;42934;54.294;18.598;2022-11-06T01:45:09;101010.38;;;5.90;84.18
57048;BME280;42934;54.294;18.598;2022-11-06T01:47:44;101012.13;;;5.91;84.30
57048;BME280;42934;54.294;18.598;2022-11-06T01:50:15;101023.47;;;5.84;84.47
57048;BME280;42934;54.294;18.598;2022-11-06T01:52:47;101017.41;;;5.81;84.47
57048;BME280;42934;54.294;18.598;2022-11-06T01:55:22;101020.00;;;5.85;84.75
57048;BME280;42934;54.294;18.598;2022-11-06T01:57:54;101031.28;;;5.84;84.21
57048;BME280;42934;54.294;18.598;2022-11-06T02:00:24;101026.97;;;5.83;84.19
57048;BME280;42934;54.294;18.598;2022-11-06T02:02:55;101019.06;;;5.91;84.25
57048;BME280;42934;54.294;18.598;2022-11-06T02:05:25;101020.84;;;5.84;84.41
57048;BME280;42934;54.294;18.598;2022-11-06T02:07:55;101013.88;;;5.89;84.33
57048;BME280;42934;54.294;18.598;2022-11-06T02:10:25;101018.19;;;5.90;84.98
57048;BME280;42934;54.294;18.598;2022-11-06T02:13:10;101026.16;;;5.74;84.73
57048;BME280;42934;54.294;18.598;2022-11-06T02:15:47;101021.81;;;5.69;85.78
57048;BME280;42934;54.294;18.598;2022-11-06T02:18:40;101026.94;;;5.86;84.96
57048;BME280;42934;54.294;18.598;2022-11-06T02:27:35;101031.31;;;5.78;85.04
57048;BME280;42934;54.294;18.598;2022-11-06T02:30:06;101030.41;;;5.82;85.12
57048;BME280;42934;54.294;18.598;2022-11-06T02:32:40;101020.84;;;5.87;85.11
57048;BME280;42934;54.294;18.598;2022-11-06T02:35:18;101013.84;;;5.92;84.79
57048;BME280;42934;54.294;18.598;2022-11-06T02:37:53;101018.25;;;5.84;84.90
57048;BME280;42934;54.294;18.598;2022-11-06T02:40:28;101022.59;;;5.88;85.20
57048;BME280;42934;54.294;18.598;2022-11-06T02:43:03;101025.19;;;5.82;85.00
57048;BME280;42934;54.294;18.598;2022-11-06T02:45:39;101024.38;;;5.80;85.20
57048;BME280;42934;54.294;18.598;2022-11-06T02:48:09;101024.28;;;5.92;84.68
57048;BME280;42934;54.294;18.598;2022-11-06T02:50:44;101019.94;;;5.91;84.26
57048;BME280;42934;54.294;18.598;2022-11-06T02:53:18;101020.81;;;5.92;84.39
57048;BME280;42934;54.294;18.598;2022-11-06T02:55:52;101011.25;;;5.92;84.69
57048;BME280;42934;54.294;18.598;2022-11-06T02:58:29;101011.25;;;5.92;84.20
57048;BME280;42934;54.294;18.598;2022-11-06T03:01:03;101009.56;;;5.85;84.44
57048;BME280;42934;54.294;18.598;2022-11-06T03:03:36;101008.69;;;5.86;84.25
57048;BME280;42934;54.294;18.598;2022-11-06T03:06:11;101009.56;;;5.88;84.81
57048;BME280;42934;54.294;18.598;2022-11-06T03:08:43;101006.91;;;5.90;84.96
57048;BME280;42934;54.294;18.598;2022-11-06T03:11:19;101010.41;;;5.89;84.68
57048;BME280;42934;54.294;18.598;2022-11-06T03:13:55;100999.09;;;5.90;84.55
57048;BME280;42934;54.294;18.598;2022-11-06T03:16:31;101009.53;;;5.93;84.49
57048;BME280;42934;54.294;18.598;2022-11-06T03:19:06;101010.41;;;5.95;84.38
57048;BME280;42934;54.294;18.598;2022-11-06T03:21:49;101006.91;;;5.96;84.86
57048;BME280;42934;54.294;18.598;2022-11-06T03:24:28;101010.41;;;5.95;84.58
57048;BME280;42934;54.294;18.598;2022-11-06T03:27:02;101006.91;;;5.91;83.85
57048;BME280;42934;54.294;18.598;2022-11-06T03:29:40;101006.94;;;5.95;84.20
57048;BME280;42934;54.294;18.598;2022-11-06T03:32:17;101008.72;;;5.83;83.92
57048;BME280;42934;54.294;18.598;2022-11-06T03:34:51;101005.25;;;5.81;83.89
57048;BME280;42934;54.294;18.598;2022-11-06T03:37:25;101009.56;;;5.82;84.07
57048;BME280;42934;54.294;18.598;2022-11-06T03:40:00;101007.84;;;5.81;83.96
57048;BME280;42934;54.294;18.598;2022-11-06T03:42:31;101016.56;;;5.77;84.16
57048;BME280;42934;54.294;18.598;2022-11-06T03:45:04;101019.22;;;5.74;83.39
57048;BME280;42934;54.294;18.598;2022-11-06T03:47:37;101018.31;;;5.75;83.58
57048;BME280;42934;54.294;18.598;2022-11-06T03:50:12;101018.34;;;5.72;84.18
57048;BME280;42934;54.294;18.598;2022-11-06T03:52:48;101020.97;;;5.69;83.73
57048;BME280;42934;54.294;18.598;2022-11-06T03:55:25;101034.00;;;5.67;83.64
57048;BME280;42934;54.294;18.598;2022-11-06T03:57:58;101021.00;;;5.61;83.45
57048;BME280;42934;54.294;18.598;2022-11-06T04:00:33;101033.16;;;5.61;83.22
57048;BME280;42934;54.294;18.598;2022-11-06T04:03:06;101028.00;;;5.59;83.92
57048;BME280;42934;54.294;18.598;2022-11-06T04:05:45;101037.56;;;5.54;83.77
57048;BME280;42934;54.294;18.598;2022-11-06T04:08:18;101038.41;;;5.55;84.08
57048;BME280;42934;54.294;18.598;2022-11-06T04:11:07;101028.03;;;5.47;84.16
57048;BME280;42934;54.294;18.598;2022-11-06T04:13:56;101030.66;;;5.45;84.34
57048;BME280;42934;54.294;18.598;2022-11-06T04:16:33;101025.50;;;5.35;84.57
57048;BME280;42934;54.294;18.598;2022-11-06T04:19:08;101034.16;;;5.35;84.08
57048;BME280;42934;54.294;18.598;2022-11-06T04:22:00;101024.66;;;5.36;83.97
57048;BME280;42934;54.294;18.598;2022-11-06T04:24:42;101023.78;;;5.34;84.24
57048;BME280;42934;54.294;18.598;2022-11-06T04:27:42;101017.66;;;5.38;84.24
57048;BME280;42934;54.294;18.598;2022-11-06T04:30:17;101012.44;;;5.42;84.17
57048;BME280;42934;54.294;18.598;2022-11-06T04:33:06;101009.81;;;5.44;84.00
57048;BME280;42934;54.294;18.598;2022-11-06T04:35:48;101002.91;;;5.40;83.96
57048;BME280;42934;54.294;18.598;2022-11-06T04:38:26;101002.03;;;5.41;83.93
57048;BME280;42934;54.294;18.598;2022-11-06T04:41:02;100997.72;;;5.41;83.69
57048;BME280;42934;54.294;18.598;2022-11-06T04:43:40;100995.09;;;5.43;83.73
57048;BME280;42934;54.294;18.598;2022-11-06T04:46:15;100995.09;;;5.41;83.40
57048;BME280;42934;54.294;18.598;2022-11-06T04:48:49;101002.03;;;5.41;83.88
57048;BME280;42934;54.294;18.598;2022-11-06T04:51:22;100996.81;;;5.42;83.61
57048;BME280;42934;54.294;18.598;2022-11-06T04:53:54;101000.31;;;5.40;83.73
57048;BME280;42934;54.294;18.598;2022-11-06T04:56:29;101006.41;;;5.39;83.63
57048;BME280;42934;54.294;18.598;2022-11-06T04:59:02;101005.53;;;5.41;83.35
57048;BME280;42934;54.294;18.598;2022-11-06T05:01:32;101001.19;;;5.39;83.50
57048;BME280;42934;54.294;18.598;2022-11-06T05:04:03;101002.09;;;5.30;83.97
57048;BME280;42934;54.294;18.598;2022-11-06T05:06:32;101001.25;;;5.30;83.62
57048;BME280;42934;54.294;18.598;2022-11-06T05:09:01;100996.94;;;5.22;83.37
57048;BME280;42934;54.294;18.598;2022-11-06T05:11:30;100997.84;;;5.18;83.64
57048;BME280;42934;54.294;18.598;2022-11-06T05:13:59;101007.34;;;5.24;84.12
57048;BME280;42934;54.294;18.598;2022-11-06T05:16:29;101000.41;;;5.23;83.46
57048;BME280;42934;54.294;18.598;2022-11-06T05:18:58;101005.63;;;5.20;83.57
57048;BME280;42934;54.294;18.598;2022-11-06T05:21:29;101008.19;;;5.23;83.47
57048;BME280;42934;54.294;18.598;2022-11-06T05:24:15;101012.56;;;5.21;83.29
57048;BME280;42934;54.294;18.598;2022-11-06T05:26:44;101017.78;;;5.21;83.32
57048;BME280;42934;54.294;18.598;2022-11-06T05:29:14;101016.91;;;5.19;83.38
57048;BME280;42934;54.294;18.598;2022-11-06T05:31:43;101026.44;;;5.24;83.46
57048;BME280;42934;54.294;18.598;2022-11-06T05:34:12;101028.19;;;5.24;83.94
57048;BME280;42934;54.294;18.598;2022-11-06T05:36:43;101034.25;;;5.23;83.44
57048;BME280;42934;54.294;18.598;2022-11-06T05:39:12;101040.34;;;5.23;83.38
57048;BME280;42934;54.294;18.598;2022-11-06T05:41:41;101045.56;;;5.14;82.65
57048;BME280;42934;54.294;18.598;2022-11-06T05:44:10;101036.91;;;5.08;82.68
57048;BME280;42934;54.294;18.598;2022-11-06T05:46:40;101046.47;;;5.07;82.89
57048;BME280;42934;54.294;18.598;2022-11-06T05:49:16;101039.53;;;5.09;83.20
57048;BME280;42934;54.294;18.598;2022-11-06T05:51:47;101039.50;;;5.14;83.65
57048;BME280;42934;54.294;18.598;2022-11-06T05:54:15;101039.50;;;5.11;83.39
57048;BME280;42934;54.294;18.598;2022-11-06T05:56:45;101037.75;;;5.11;83.00
57048;BME280;42934;54.294;18.598;2022-11-06T05:59:14;101045.56;;;5.11;83.72
57048;BME280;42934;54.294;18.598;2022-11-06T06:01:43;101044.72;;;5.11;83.33
57048;BME280;42934;54.294;18.598;2022-11-06T06:04:12;101045.56;;;5.14;83.58
57048;BME280;42934;54.294;18.598;2022-11-06T06:06:42;101042.06;;;5.17;83.39
57048;BME280;42934;54.294;18.598;2022-11-06T06:09:12;101047.31;;;5.15;83.58
57048;BME280;42934;54.294;18.598;2022-11-06T06:11:42;101044.69;;;5.14;82.89
57048;BME280;42934;54.294;18.598;2022-11-06T06:14:11;101044.72;;;5.12;83.70
57048;BME280;42934;54.294;18.598;2022-11-06T06:16:41;101051.63;;;5.13;83.05
57048;BME280;42934;54.294;18.598;2022-11-06T06:19:10;101055.09;;;5.17;83.37
57048;BME280;42934;54.294;18.598;2022-11-06T06:21:39;101053.34;;;5.19;83.11
57048;BME280;42934;54.294;18.598;2022-11-06T06:24:08;101062.00;;;5.22;83.67
57048;BME280;42934;54.294;18.598;2022-11-06T06:26:39;101049.84;;;5.26;83.02
57048;BME280;42934;54.294;18.598;2022-11-06T06:29:08;101059.41;;;5.24;82.99
57048;BME280;42934;54.294;18.598;2022-11-06T06:31:37;101054.16;;;5.29;83.77
57048;BME280;42934;54.294;18.598;2022-11-06T06:34:06;101051.56;;;5.29;82.72
57048;BME280;42934;54.294;18.598;2022-11-06T06:36:35;101048.09;;;5.31;83.22
57048;BME280;42934;54.294;18.598;2022-11-06T06:39:04;101056.78;;;5.33;83.78
57048;BME280;42934;54.294;18.598;2022-11-06T06:41:33;101055.00;;;5.35;83.58
57048;BME280;42934;54.294;18.598;2022-11-06T06:44:04;101050.66;;;5.37;82.92
57048;BME280;42934;54.294;18.598;2022-11-06T06:46:33;101051.50;;;5.42;83.66
57048;BME280;42934;54.294;18.598;2022-11-06T06:49:03;101048.03;;;5.45;83.33
57048;BME280;42934;54.294;18.598;2022-11-06T06:51:32;101051.47;;;5.49;83.36
57048;BME280;42934;54.294;18.598;2022-11-06T06:54:01;101054.94;;;5.52;83.04
57048;BME280;42934;54.294;18.598;2022-11-06T06:56:30;101046.22;;;5.58;83.66
57048;BME280;42934;54.294;18.598;2022-11-06T06:58:59;101047.91;;;5.63;83.76
57048;BME280;42934;54.294;18.598;2022-11-06T07:01:30;101040.94;;;5.68;83.81
57048;BME280;42934;54.294;18.598;2022-11-06T07:03:59;101056.53;;;5.73;83.29
57048;BME280;42934;54.294;18.598;2022-11-06T07:06:31;101057.41;;;5.77;83.50
57048;BME280;42934;54.294;18.598;2022-11-06T07:09:00;101062.59;;;5.78;83.98
57048;BME280;42934;54.294;18.598;2022-11-06T07:11:29;101072.13;;;5.81;83.93
57048;BME280;42934;54.294;18.598;2022-11-06T07:13:58;101073.84;;;5.82;83.58
57048;BME280;42934;54.294;18.598;2022-11-06T07:16:29;101068.66;;;5.80;83.46
57048;BME280;42934;54.294;18.598;2022-11-06T07:18:59;101066.91;;;5.84;83.50
57048;BME280;42934;54.294;18.598;2022-11-06T07:21:28;101070.38;;;5.84;83.95
57048;BME280;42934;54.294;18.598;2022-11-06T07:23:57;101063.41;;;5.86;83.72
57048;BME280;42934;54.294;18.598;2022-11-06T07:26:27;101072.09;;;5.88;83.08
57048;BME280;42934;54.294;18.598;2022-11-06T07:28:56;101068.59;;;5.89;83.33
57048;BME280;42934;54.294;18.598;2022-11-06T07:31:25;101070.34;;;5.92;84.00
57048;BME280;42934;54.294;18.598;2022-11-06T07:33:56;101073.81;;;5.97;83.93
57048;BME280;42934;54.294;18.598;2022-11-06T07:36:25;101072.84;;;6.07;83.88
57048;BME280;42934;54.294;18.598;2022-11-06T07:38:54;101076.31;;;6.12;83.87
57048;BME280;42934;54.294;18.598;2022-11-06T07:41:23;101078.84;;;6.17;83.43
57048;BME280;42934;54.294;18.598;2022-11-06T07:43:52;101068.41;;;6.22;83.08
57048;BME280;42934;54.294;18.598;2022-11-06T07:46:22;101079.69;;;6.22;83.63
57048;BME280;42934;54.294;18.598;2022-11-06T07:48:51;101082.28;;;6.27;83.25
57048;BME280;42934;54.294;18.598;2022-11-06T07:51:22;101076.16;;;6.32;83.96
57048;BME280;42934;54.294;18.598;2022-11-06T07:53:52;101074.34;;;6.37;83.66
57048;BME280;42934;54.294;18.598;2022-11-06T07:56:21;101067.34;;;6.43;83.33
57048;BME280;42934;54.294;18.598;2022-11-06T07:58:50;101069.91;;;6.49;83.75
57048;BME280;42934;54.294;18.598;2022-11-06T08:01:19;101070.69;;;6.57;83.16
57048;BME280;42934;54.294;18.598;2022-11-06T08:03:49;101072.38;;;6.61;84.25
57048;BME280;42934;54.294;18.598;2022-11-06T08:06:18;101079.25;;;6.70;83.62
57048;BME280;42934;54.294;18.598;2022-11-06T08:08:48;101071.38;;;6.76;83.65
57048;BME280;42934;54.294;18.598;2022-11-06T08:11:25;101080.84;;;6.85;83.57
57048;BME280;42934;54.294;18.598;2022-11-06T08:13:54;101074.72;;;6.90;83.42
57048;BME280;42934;54.294;18.598;2022-11-06T08:16:23;101079.00;;;6.96;83.01
57048;BME280;42934;54.294;18.598;2022-11-06T08:18:52;101083.28;;;7.03;83.05
57048;BME280;42934;54.294;18.598;2022-11-06T08:21:22;101082.41;;;7.04;82.81
57048;BME280;42934;54.294;18.598;2022-11-06T08:23:52;101080.59;;;7.09;83.22
57048;BME280;42934;54.294;18.598;2022-11-06T08:26:21;101089.19;;;7.19;82.36
57048;BME280;42934;54.294;18.598;2022-11-06T08:28:50;101091.75;;;7.22;82.60
57048;BME280;42934;54.294;18.598;2022-11-06T08:31:20;101090.84;;;7.27;82.23
57048;BME280;42934;54.294;18.598;2022-11-06T08:33:49;101087.25;;;7.35;82.01
57048;BME280;42934;54.294;18.598;2022-11-06T08:36:18;101074.97;;;7.43;82.12
57048;BME280;42934;54.294;18.598;2022-11-06T08:38:48;101086.22;;;7.48;81.84
57048;BME280;42934;54.294;18.598;2022-11-06T08:41:18;101089.56;;;7.58;82.04
57048;BME280;42934;54.294;18.598;2022-11-06T08:43:50;101085.13;;;7.64;81.97
57048;BME280;42934;54.294;18.598;2022-11-06T08:46:20;101091.97;;;7.73;81.83
57048;BME280;42934;54.294;18.598;2022-11-06T08:48:49;101091.03;;;7.80;81.48
57048;BME280;42934;54.294;18.598;2022-11-06T08:51:18;101089.22;;;7.84;81.36
57048;BME280;42934;54.294;18.598;2022-11-06T08:53:47;101082.19;;;7.89;81.50
57048;BME280;42934;54.294;18.598;2022-11-06T08:56:18;101093.31;;;8.02;80.86
57048;BME280;42934;54.294;18.598;2022-11-06T08:58:47;101089.75;;;8.06;80.81
57048;BME280;42934;54.294;18.598;2022-11-06T09:01:22;101085.38;;;8.09;80.25
57048;BME280;42934;54.294;18.598;2022-11-06T09:03:51;101093.06;;;8.18;80.08
57048;BME280;42934;54.294;18.598;2022-11-06T09:06:21;101089.47;;;8.24;80.17
57048;BME280;42934;54.294;18.598;2022-11-06T09:08:51;101085.88;;;8.33;80.05
57048;BME280;42934;54.294;18.598;2022-11-06T09:11:21;101089.28;;;8.36;79.61
57048;BME280;42934;54.294;18.598;2022-11-06T09:13:50;101085.75;;;8.40;79.19
57048;BME280;42934;54.294;18.598;2022-11-06T09:16:19;101090.91;;;8.45;78.92
57048;BME280;42934;54.294;18.598;2022-11-06T09:18:48;101094.22;;;8.55;78.78
57048;BME280;42934;54.294;18.598;2022-11-06T09:21:18;101096.84;;;8.55;77.81
57048;BME280;42934;54.294;18.598;2022-11-06T09:23:47;101101.97;;;8.61;77.93
57048;BME280;42934;54.294;18.598;2022-11-06T09:26:17;101095.75;;;8.68;77.95
57048;BME280;42934;54.294;18.598;2022-11-06T09:28:47;101081.59;;;8.78;77.91
57048;BME280;42934;54.294;18.598;2022-11-06T09:31:18;101092.69;;;8.91;77.79
57048;BME280;42934;54.294;18.598;2022-11-06T09:33:47;101078.56;;;9.01;77.70
57048;BME280;42934;54.294;18.598;2022-11-06T09:36:16;101076.66;;;9.09;77.52
57048;BME280;42934;54.294;18.598;2022-11-06T09:38:45;101068.50;;;9.23;77.28
57048;BME280;42934;54.294;18.598;2022-11-06T09:41:19;101064.81;;;9.33;76.82
57048;BME280;42934;54.294;18.598;2022-11-06T09:44:02;101072.38;;;9.47;76.99
57048;BME280;42934;54.294;18.598;2022-11-06T09:46:39;101070.38;;;9.59;76.39
57048;BME280;42934;54.294;18.598;2022-11-06T09:49:17;101060.66;;;9.64;76.11
57048;BME280;42934;54.294;18.598;2022-11-06T09:51:53;101063.91;;;9.75;75.33
57048;BME280;42934;54.294;18.598;2022-11-06T09:54:29;101058.50;;;9.81;75.31
57048;BME280;42934;54.294;18.598;2022-11-06T09:57:04;101054.88;;;9.88;75.17
57048;BME280;42934;54.294;18.598;2022-11-06T09:59:39;101056.38;;;9.97;74.19
57048;BME280;42934;54.294;18.598;2022-11-06T10:02:22;101051.09;;;10.00;74.50
57048;BME280;42934;54.294;18.598;2022-11-06T10:05:01;101046.50;;;10.08;74.11
57048;BME280;42934;54.294;18.598;2022-11-06T10:07:34;101044.53;;;10.18;74.19
57048;BME280;42934;54.294;18.598;2022-11-06T10:10:06;101043.56;;;10.22;73.41
57048;BME280;42934;54.294;18.598;2022-11-06T10:12:51;101044.19;;;10.33;73.36
57048;BME280;42934;54.294;18.598;2022-11-06T10:15:31;101039.56;;;10.43;73.51
57048;BME280;42934;54.294;18.598;2022-11-06T10:18:08;101042.75;;;10.54;73.67
57048;BME280;42934;54.294;18.598;2022-11-06T10:20:46;101038.97;;;10.64;73.25
57048;BME280;42934;54.294;18.598;2022-11-06T10:23:25;101025.63;;;10.74;73.14
57048;BME280;42934;54.294;18.598;2022-11-06T10:26:03;101031.56;;;10.80;72.13
57048;BME280;42934;54.294;18.598;2022-11-06T10:31:55;101042.59;;;10.93;70.40
57048;BME280;42934;54.294;18.598;2022-11-06T10:34:28;101023.34;;;10.93;70.82
57048;BME280;42934;54.294;18.598;2022-11-06T10:37:03;101032.63;;;11.04;70.76
57048;BME280;42934;54.294;18.598;2022-11-06T10:39:35;101022.78;;;11.12;69.97
57048;BME280;42934;54.294;18.598;2022-11-06T10:42:08;101019.69;;;11.28;69.36
57048;BME280;42934;54.294;18.598;2022-11-06T10:44:43;101022.53;;;11.50;69.30
57048;BME280;42934;54.294;18.598;2022-11-06T10:47:19;101022.53;;;11.78;68.32
57048;BME280;42934;54.294;18.598;2022-11-06T10:49:51;101019.66;;;12.14;68.43
57048;BME280;42934;54.294;18.598;2022-11-06T10:52:31;101009.84;;;12.69;67.17
57048;BME280;42934;54.294;18.598;2022-11-06T10:55:44;101010.75;;;13.40;64.97
57048;BME280;42934;54.294;18.598;2022-11-06T10:58:19;101000.09;;;13.87;64.82
57048;BME280;42934;54.294;18.598;2022-11-06T11:00:50;100994.66;;;14.54;62.22
57048;BME280;42934;54.294;18.598;2022-11-06T11:03:27;100988.56;;;14.52;62.46
57048;BME280;42934;54.294;18.598;2022-11-06T11:05:58;100990.31;;;14.31;63.02
57048;BME280;42934;54.294;18.598;2022-11-06T11:08:36;100982.59;;;14.06;62.01
57048;BME280;42934;54.294;18.598;2022-11-06T11:11:20;100971.50;;;13.98;62.85
57048;BME280;42934;54.294;18.598;2022-11-06T11:16:38;100970.09;;;13.90;62.06
57048;BME280;42934;54.294;18.598;2022-11-06T11:19:23;100968.38;;;13.89;62.65
57048;BME280;42934;54.294;18.598;2022-11-06T11:21:55;100977.88;;;13.93;62.57
57048;BME280;42934;54.294;18.598;2022-11-06T11:24:25;100962.84;;;13.95;62.50
57048;BME280;42934;54.294;18.598;2022-11-06T11:26:58;100959.28;;;13.96;62.18
57048;BME280;42934;54.294;18.598;2022-11-06T11:29:29;100959.13;;;13.99;61.68
57048;BME280;42934;54.294;18.598;2022-11-06T11:32:01;100950.28;;;14.00;62.25
57048;BME280;42934;54.294;18.598;2022-11-06T11:34:36;100950.16;;;14.03;61.90
57048;BME280;42934;54.294;18.598;2022-11-06T11:37:23;100949.03;;;14.08;61.57
57048;BME280;42934;54.294;18.598;2022-11-06T11:39:53;100944.50;;;14.12;61.73
57048;BME280;42934;54.294;18.598;2022-11-06T11:42:25;100942.59;;;14.16;61.73
57048;BME280;42934;54.294;18.598;2022-11-06T11:45:21;100948.47;;;14.22;61.23
57048;BME280;42934;54.294;18.598;2022-11-06T11:47:51;100939.47;;;14.26;61.42
57048;BME280;42934;54.294;18.598;2022-11-06T11:50:32;100934.97;;;14.28;60.82
57048;BME280;42934;54.294;18.598;2022-11-06T11:53:05;100934.19;;;14.26;61.03
57048;BME280;42934;54.294;18.598;2022-11-06T11:55:41;100932.88;;;14.37;60.75
57048;BME280;42934;54.294;18.598;2022-11-06T11:58:19;100935.38;;;14.40;61.14
57048;BME280;42934;54.294;18.598;2022-11-06T12:00:53;100932.47;;;14.46;59.78
57048;BME280;42934;54.294;18.598;2022-11-06T12:03:24;100921.47;;;14.36;59.82
57048;BME280;42934;54.294;18.598;2022-11-06T12:06:06;100928.44;;;14.37;60.38
57048;BME280;42934;54.294;18.598;2022-11-06T12:08:38;100925.63;;;14.42;60.23
57048;BME280;42934;54.294;18.598;2022-11-06T12:11:13;100916.88;;;14.40;60.69
57048;BME280;42934;54.294;18.598;2022-11-06T12:13:43;100920.34;;;14.42;60.59
57048;BME280;42934;54.294;18.598;2022-11-06T12:16:15;100924.69;;;14.43;59.97
57048;BME280;42934;54.294;18.598;2022-11-06T12:18:48;100922.50;;;14.32;60.51
57048;BME280;42934;54.294;18.598;2022-11-06T12:21:28;100919.59;;;14.38;61.01
57048;BME280;42934;54.294;18.598;2022-11-06T12:24:04;100922.31;;;14.37;61.34
57048;BME280;42934;54.294;18.598;2022-11-06T12:26:39;100918.53;;;14.42;61.37
57048;BME280;42934;54.294;18.598;2022-11-06T12:29:16;100915.91;;;14.42;61.72
57048;BME280;42934;54.294;18.598;2022-11-06T12:31:51;100907.16;;;14.40;61.55
57048;BME280;42934;54.294;18.598;2022-11-06T12:34:30;100914.56;;;14.32;61.19
57048;BME280;42934;54.294;18.598;2022-11-06T12:37:13;100906.78;;;14.08;61.73
57048;BME280;42934;54.294;18.598;2022-11-06T12:39:51;100906.28;;;14.00;61.53
57048;BME280;42934;54.294;18.598;2022-11-06T12:42:26;100907.41;;;13.95;61.78
57048;BME280;42934;54.294;18.598;2022-11-06T12:44:58;100906.06;;;13.84;62.55
57048;BME280;42934;54.294;18.598;2022-11-06T12:47:36;100909.16;;;13.74;62.32
57048;BME280;42934;54.294;18.598;2022-11-06T12:50:24;100907.25;;;13.55;62.98
57048;BME280;42934;54.294;18.598;2022-11-06T12:53:11;100909.69;;;13.39;63.60
57048;BME280;42934;54.294;18.598;2022-11-06T12:55:50;100909.47;;;13.22;63.92
57048;BME280;42934;54.294;18.598;2022-11-06T13:01:14;100909.28;;;12.81;64.70
57048;BME280;42934;54.294;18.598;2022-11-06T13:04:02;100902.91;;;12.63;64.84
57048;BME280;42934;54.294;18.598;2022-11-06T13:09:31;100903.66;;;12.43;65.28
57048;BME280;42934;54.294;18.598;2022-11-06T13:12:07;100914.47;;;12.36;65.66
57048;BME280;42934;54.294;18.598;2022-11-06T13:14:46;100909.53;;;12.26;66.34
57048;BME280;42934;54.294;18.598;2022-11-06T13:17:25;100904.31;;;12.25;66.37
57048;BME280;42934;54.294;18.598;2022-11-06T13:20:03;100908.03;;;12.19;66.55
57048;BME280;42934;54.294;18.598;2022-11-06T13:22:37;100904.00;;;12.09;67.01
57048;BME280;42934;54.294;18.598;2022-11-06T13:25:14;100899.25;;;11.94;67.25
57048;BME280;42934;54.294;18.598;2022-11-06T13:27:49;100888.16;;;11.86;67.76
57048;BME280;42934;54.294;18.598;2022-11-06T13:30:21;100884.81;;;11.79;67.98
57048;BME280;42934;54.294;18.598;2022-11-06T13:33:00;100885.03;;;11.73;68.25
57048;BME280;42934;54.294;18.598;2022-11-06T13:35:35;100888.50;;;11.73;68.39
57048;BME280;42934;54.294;18.598;2022-11-06T13:38:07;100892.13;;;11.71;68.38
57048;BME280;42934;54.294;18.598;2022-11-06T13:40:41;100876.38;;;11.69;68.35
57048;BME280;42934;54.294;18.598;2022-11-06T13:43:15;100888.72;;;11.67;68.73
57048;BME280;42934;54.294;18.598;2022-11-06T13:45:50;100887.13;;;11.63;68.95
57048;BME280;42934;54.294;18.598;2022-11-06T13:48:31;100885.41;;;11.62;68.78
57048;BME280;42934;54.294;18.598;2022-11-06T13:51:11;100893.19;;;11.65;68.63
57048;BME280;42934;54.294;18.598;2022-11-06T13:53:45;100889.66;;;11.65;68.88
57048;BME280;42934;54.294;18.598;2022-11-06T13:56:42;100893.22;;;11.64;69.20
57048;BME280;42934;54.294;18.598;2022-11-06T13:59:33;100897.72;;;11.60;68.98